sensor_id;sensor_type;location;lat;lon;timestamp;temperature;humidity
23411;DHT22;11878;51.774;7.220;2023-09-19T00:02:11;15.80;99.90
23411;DHT22;11878;51.774;7.220;2023-09-19T00:05:13;15.80;99.90
23411;DHT22;11878;51.774;7.220;2023-09-19T00:08:15;15.80;99.90
23411;DHT22;11878;51.774;7.220;2023-09-19T00:11:17;15.80;99.90
23411;DHT22;11878;51.774;7.220;2023-09-19T00:14:19;15.70;99.90
23411;DHT22;11878;51.774;7.220;2023-09-19T00:17:22;15.70;99.90
23411;DHT22;11878;51.774;7.220;2023-09-19T00:20:23;15.70;99.90
23411;DHT22;11878;51.774;7.220;2023-09-19T00:23:26;15.70;99.90
23411;DHT22;11878;51.774;7.220;2023-09-19T00:26:28;15.70;99.90
23411;DHT22;11878;51.774;7.220;2023-09-19T00:29:32;15.60;99.90
23411;DHT22;11878;51.774;7.220;2023-09-19T00:32:34;15.50;99.90
23411;DHT22;11878;51.774;7.220;2023-09-19T00:35:36;15.50;99.90
23411;DHT22;11878;51.774;7.220;2023-09-19T00:38:38;15.50;99.90
23411;DHT22;11878;51.774;7.220;2023-09-19T00:41:40;15.60;99.90
23411;DHT22;11878;51.774;7.220;2023-09-19T00:44:43;15.60;99.90
23411;DHT22;11878;51.774;7.220;2023-09-19T00:47:48;15.60;99.90
23411;DHT22;11878;51.774;7.220;2023-09-19T00:50:51;15.60;99.90
23411;DHT22;11878;51.774;7.220;2023-09-19T00:53:55;15.60;99.90
23411;DHT22;11878;51.774;7.220;2023-09-19T00:56:57;15.70;99.90
23411;DHT22;11878;51.774;7.220;2023-09-19T01:00:02;15.80;99.70
23411;DHT22;11878;51.774;7.220;2023-09-19T01:03:10;15.70;99.60
23411;DHT22;11878;51.774;7.220;2023-09-19T01:06:15;15.80;99.20
23411;DHT22;11878;51.774;7.220;2023-09-19T01:09:17;15.80;99.30
23411;DHT22;11878;51.774;7.220;2023-09-19T01:12:30;15.80;99.00
23411;DHT22;11878;51.774;7.220;2023-09-19T01:29:19;15.80;99.30
23411;DHT22;11878;51.774;7.220;2023-09-19T01:32:31;15.80;98.50
23411;DHT22;11878;51.774;7.220;2023-09-19T01:35:34;15.80;98.30
23411;DHT22;11878;51.774;7.220;2023-09-19T01:38:36;15.70;98.80
23411;DHT22;11878;51.774;7.220;2023-09-19T01:41:45;15.70;98.60
23411;DHT22;11878;51.774;7.220;2023-09-19T01:44:57;15.60;98.20
23411;DHT22;11878;51.774;7.220;2023-09-19T01:48:25;15.60;98.90
23411;DHT22;11878;51.774;7.220;2023-09-19T01:54:59;15.40;99.10
23411;DHT22;11878;51.774;7.220;2023-09-19T01:58:07;15.40;98.60
23411;DHT22;11878;51.774;7.220;2023-09-19T02:01:12;15.40;98.60
23411;DHT22;11878;51.774;7.220;2023-09-19T02:04:17;15.40;98.90
23411;DHT22;11878;51.774;7.220;2023-09-19T02:07:20;15.30;98.90
23411;DHT22;11878;51.774;7.220;2023-09-19T02:10:24;15.30;98.80
23411;DHT22;11878;51.774;7.220;2023-09-19T02:13:26;15.20;98.80
23411;DHT22;11878;51.774;7.220;2023-09-19T02:16:29;15.20;99.40
23411;DHT22;11878;51.774;7.220;2023-09-19T02:19:32;15.10;99.50
23411;DHT22;11878;51.774;7.220;2023-09-19T02:22:35;15.10;99.10
23411;DHT22;11878;51.774;7.220;2023-09-19T02:25:38;15.10;99.20
23411;DHT22;11878;51.774;7.220;2023-09-19T02:28:42;15.00;99.90
23411;DHT22;11878;51.774;7.220;2023-09-19T02:31:44;14.90;99.30
23411;DHT22;11878;51.774;7.220;2023-09-19T02:34:49;15.00;99.20
23411;DHT22;11878;51.774;7.220;2023-09-19T02:37:53;15.00;99.20
23411;DHT22;11878;51.774;7.220;2023-09-19T02:40:55;14.90;99.70
23411;DHT22;11878;51.774;7.220;2023-09-19T02:43:57;14.90;98.80
23411;DHT22;11878;51.774;7.220;2023-09-19T02:47:01;14.90;98.80
23411;DHT22;11878;51.774;7.220;2023-09-19T02:50:04;14.90;98.60
23411;DHT22;11878;51.774;7.220;2023-09-19T02:53:06;14.80;98.60
23411;DHT22;11878;51.774;7.220;2023-09-19T02:56:08;14.90;98.20
23411;DHT22;11878;51.774;7.220;2023-09-19T02:59:11;14.80;99.20
23411;DHT22;11878;51.774;7.220;2023-09-19T03:02:13;14.80;97.90
23411;DHT22;11878;51.774;7.220;2023-09-19T03:05:16;14.80;97.80
23411;DHT22;11878;51.774;7.220;2023-09-19T03:08:18;14.80;97.70
23411;DHT22;11878;51.774;7.220;2023-09-19T03:11:22;14.80;97.70
23411;DHT22;11878;51.774;7.220;2023-09-19T03:14:27;14.80;97.30
23411;DHT22;11878;51.774;7.220;2023-09-19T03:17:33;14.80;97.20
23411;DHT22;11878;51.774;7.220;2023-09-19T03:20:35;14.80;96.70
23411;DHT22;11878;51.774;7.220;2023-09-19T03:23:37;14.80;96.80
23411;DHT22;11878;51.774;7.220;2023-09-19T03:26:40;14.80;97.00
23411;DHT22;11878;51.774;7.220;2023-09-19T03:29:42;14.80;96.60
23411;DHT22;11878;51.774;7.220;2023-09-19T03:32:46;14.70;96.40
23411;DHT22;11878;51.774;7.220;2023-09-19T03:35:53;14.70;96.30
23411;DHT22;11878;51.774;7.220;2023-09-19T03:38:55;14.70;96.50
23411;DHT22;11878;51.774;7.220;2023-09-19T03:41:57;14.70;96.20
23411;DHT22;11878;51.774;7.220;2023-09-19T03:44:59;14.60;96.00
23411;DHT22;11878;51.774;7.220;2023-09-19T03:48:09;14.60;96.50
23411;DHT22;11878;51.774;7.220;2023-09-19T03:51:12;14.60;95.80
23411;DHT22;11878;51.774;7.220;2023-09-19T03:54:14;14.60;96.40
23411;DHT22;11878;51.774;7.220;2023-09-19T03:57:16;14.60;95.70
23411;DHT22;11878;51.774;7.220;2023-09-19T04:00:22;14.60;95.80
23411;DHT22;11878;51.774;7.220;2023-09-19T04:03:29;14.50;95.90
23411;DHT22;11878;51.774;7.220;2023-09-19T04:06:37;14.50;95.50
23411;DHT22;11878;51.774;7.220;2023-09-19T04:09:39;14.60;95.80
23411;DHT22;11878;51.774;7.220;2023-09-19T04:12:53;14.50;95.30
23411;DHT22;11878;51.774;7.220;2023-09-19T04:15:56;14.50;95.20
23411;DHT22;11878;51.774;7.220;2023-09-19T04:18:58;14.50;95.40
23411;DHT22;11878;51.774;7.220;2023-09-19T04:22:00;14.40;95.50
23411;DHT22;11878;51.774;7.220;2023-09-19T04:25:03;14.40;95.80
23411;DHT22;11878;51.774;7.220;2023-09-19T04:28:05;14.40;95.50
23411;DHT22;11878;51.774;7.220;2023-09-19T04:31:08;14.40;95.50
23411;DHT22;11878;51.774;7.220;2023-09-19T04:34:10;14.30;95.20
23411;DHT22;11878;51.774;7.220;2023-09-19T04:37:12;14.30;95.20
23411;DHT22;11878;51.774;7.220;2023-09-19T04:40:17;14.30;94.70
23411;DHT22;11878;51.774;7.220;2023-09-19T04:43:20;14.30;94.60
23411;DHT22;11878;51.774;7.220;2023-09-19T04:46:21;14.30;94.70
23411;DHT22;11878;51.774;7.220;2023-09-19T04:49:23;14.20;94.40
23411;DHT22;11878;51.774;7.220;2023-09-19T04:52:25;14.40;94.60
23411;DHT22;11878;51.774;7.220;2023-09-19T04:55:27;14.20;94.70
23411;DHT22;11878;51.774;7.220;2023-09-19T04:58:29;14.20;94.30
23411;DHT22;11878;51.774;7.220;2023-09-19T05:01:31;14.20;94.00
23411;DHT22;11878;51.774;7.220;2023-09-19T05:04:34;14.30;94.00
23411;DHT22;11878;51.774;7.220;2023-09-19T05:07:37;14.20;93.90
23411;DHT22;11878;51.774;7.220;2023-09-19T05:10:39;14.30;93.70
23411;DHT22;11878;51.774;7.220;2023-09-19T05:13:41;14.30;93.60
23411;DHT22;11878;51.774;7.220;2023-09-19T05:16:43;14.30;94.40
23411;DHT22;11878;51.774;7.220;2023-09-19T05:19:45;14.30;93.90
23411;DHT22;11878;51.774;7.220;2023-09-19T05:22:47;14.20;93.80
23411;DHT22;11878;51.774;7.220;2023-09-19T05:25:51;14.30;93.70
23411;DHT22;11878;51.774;7.220;2023-09-19T05:28:53;14.40;93.50
23411;DHT22;11878;51.774;7.220;2023-09-19T05:31:55;14.40;94.80
23411;DHT22;11878;51.774;7.220;2023-09-19T05:34:57;14.30;93.60
23411;DHT22;11878;51.774;7.220;2023-09-19T05:37:59;14.40;93.80
23411;DHT22;11878;51.774;7.220;2023-09-19T05:41:01;14.40;94.00
23411;DHT22;11878;51.774;7.220;2023-09-19T05:44:04;14.40;94.40
23411;DHT22;11878;51.774;7.220;2023-09-19T05:47:06;14.40;94.10
23411;DHT22;11878;51.774;7.220;2023-09-19T05:50:11;14.40;94.40
23411;DHT22;11878;51.774;7.220;2023-09-19T05:53:13;14.50;94.50
23411;DHT22;11878;51.774;7.220;2023-09-19T05:56:16;14.50;95.00
23411;DHT22;11878;51.774;7.220;2023-09-19T05:59:20;14.50;94.70
23411;DHT22;11878;51.774;7.220;2023-09-19T06:02:22;14.60;94.70
23411;DHT22;11878;51.774;7.220;2023-09-19T06:05:25;14.60;94.60
23411;DHT22;11878;51.774;7.220;2023-09-19T06:08:33;14.60;94.50
23411;DHT22;11878;51.774;7.220;2023-09-19T06:11:35;14.70;94.40
23411;DHT22;11878;51.774;7.220;2023-09-19T06:14:37;14.60;94.70
23411;DHT22;11878;51.774;7.220;2023-09-19T06:17:39;14.70;94.70
23411;DHT22;11878;51.774;7.220;2023-09-19T06:20:41;14.70;94.60
23411;DHT22;11878;51.774;7.220;2023-09-19T06:23:46;14.90;94.80
23411;DHT22;11878;51.774;7.220;2023-09-19T06:26:48;14.80;94.50
23411;DHT22;11878;51.774;7.220;2023-09-19T06:29:51;14.80;94.40
23411;DHT22;11878;51.774;7.220;2023-09-19T06:32:57;14.80;94.40
23411;DHT22;11878;51.774;7.220;2023-09-19T06:36:00;14.90;94.40
23411;DHT22;11878;51.774;7.220;2023-09-19T06:39:02;14.90;94.30
23411;DHT22;11878;51.774;7.220;2023-09-19T06:42:05;14.90;94.00
23411;DHT22;11878;51.774;7.220;2023-09-19T06:45:08;15.00;94.20
23411;DHT22;11878;51.774;7.220;2023-09-19T06:48:13;15.00;94.60
23411;DHT22;11878;51.774;7.220;2023-09-19T06:51:15;15.00;94.10
23411;DHT22;11878;51.774;7.220;2023-09-19T06:54:18;15.00;94.50
23411;DHT22;11878;51.774;7.220;2023-09-19T06:57:19;15.00;94.30
23411;DHT22;11878;51.774;7.220;2023-09-19T07:00:21;15.00;94.20
23411;DHT22;11878;51.774;7.220;2023-09-19T07:03:24;15.00;93.90
23411;DHT22;11878;51.774;7.220;2023-09-19T07:06:28;15.10;94.10
23411;DHT22;11878;51.774;7.220;2023-09-19T07:09:30;15.10;94.10
23411;DHT22;11878;51.774;7.220;2023-09-19T07:12:32;15.30;93.90
23411;DHT22;11878;51.774;7.220;2023-09-19T07:15:38;15.30;93.70
23411;DHT22;11878;51.774;7.220;2023-09-19T07:18:42;15.30;93.80
23411;DHT22;11878;51.774;7.220;2023-09-19T07:21:46;15.30;93.80
23411;DHT22;11878;51.774;7.220;2023-09-19T07:24:49;15.30;93.60
23411;DHT22;11878;51.774;7.220;2023-09-19T07:27:51;15.30;93.70
23411;DHT22;11878;51.774;7.220;2023-09-19T07:30:53;15.30;93.30
23411;DHT22;11878;51.774;7.220;2023-09-19T07:33:55;15.40;93.50
23411;DHT22;11878;51.774;7.220;2023-09-19T07:36:57;15.50;93.70
23411;DHT22;11878;51.774;7.220;2023-09-19T07:40:00;15.50;93.60
23411;DHT22;11878;51.774;7.220;2023-09-19T07:43:02;15.50;93.60
23411;DHT22;11878;51.774;7.220;2023-09-19T07:46:07;15.60;93.60
23411;DHT22;11878;51.774;7.220;2023-09-19T07:49:11;15.60;93.60
23411;DHT22;11878;51.774;7.220;2023-09-19T07:52:13;15.60;93.80
23411;DHT22;11878;51.774;7.220;2023-09-19T07:55:17;15.40;93.60
23411;DHT22;11878;51.774;7.220;2023-09-19T07:58:21;15.70;93.50
23411;DHT22;11878;51.774;7.220;2023-09-19T08:01:24;15.70;93.70
23411;DHT22;11878;51.774;7.220;2023-09-19T08:04:29;15.80;93.50
23411;DHT22;11878;51.774;7.220;2023-09-19T08:07:32;15.80;93.30
23411;DHT22;11878;51.774;7.220;2023-09-19T08:10:34;15.70;92.80
23411;DHT22;11878;51.774;7.220;2023-09-19T08:13:42;15.90;92.90
23411;DHT22;11878;51.774;7.220;2023-09-19T08:16:48;15.90;93.20
23411;DHT22;11878;51.774;7.220;2023-09-19T08:19:51;16.00;92.60
23411;DHT22;11878;51.774;7.220;2023-09-19T08:22:54;16.00;93.30
23411;DHT22;11878;51.774;7.220;2023-09-19T08:25:57;16.00;92.70
23411;DHT22;11878;51.774;7.220;2023-09-19T08:28:59;16.20;92.90
23411;DHT22;11878;51.774;7.220;2023-09-19T08:32:07;16.10;92.20
23411;DHT22;11878;51.774;7.220;2023-09-19T08:35:10;16.20;92.10
23411;DHT22;11878;51.774;7.220;2023-09-19T08:38:12;16.30;92.40
23411;DHT22;11878;51.774;7.220;2023-09-19T08:41:17;16.30;92.20
23411;DHT22;11878;51.774;7.220;2023-09-19T08:44:19;16.30;92.00
23411;DHT22;11878;51.774;7.220;2023-09-19T08:47:40;16.20;92.10
23411;DHT22;11878;51.774;7.220;2023-09-19T08:50:53;16.20;92.00
23411;DHT22;11878;51.774;7.220;2023-09-19T08:54:03;16.30;92.10
23411;DHT22;11878;51.774;7.220;2023-09-19T08:57:07;16.30;91.80
23411;DHT22;11878;51.774;7.220;2023-09-19T09:00:13;16.40;91.90
23411;DHT22;11878;51.774;7.220;2023-09-19T09:03:16;16.40;91.80
23411;DHT22;11878;51.774;7.220;2023-09-19T09:06:21;16.40;91.40
23411;DHT22;11878;51.774;7.220;2023-09-19T09:09:24;16.50;92.10
23411;DHT22;11878;51.774;7.220;2023-09-19T09:12:27;16.60;90.50
23411;DHT22;11878;51.774;7.220;2023-09-19T09:15:29;16.70;90.70
23411;DHT22;11878;51.774;7.220;2023-09-19T09:18:31;16.90;90.20
23411;DHT22;11878;51.774;7.220;2023-09-19T09:21:33;16.80;89.40
23411;DHT22;11878;51.774;7.220;2023-09-19T09:24:54;16.70;90.20
23411;DHT22;11878;51.774;7.220;2023-09-19T09:28:00;16.70;89.50
23411;DHT22;11878;51.774;7.220;2023-09-19T09:31:03;16.70;90.20
23411;DHT22;11878;51.774;7.220;2023-09-19T09:34:10;16.80;90.30
23411;DHT22;11878;51.774;7.220;2023-09-19T09:37:16;16.80;89.40
23411;DHT22;11878;51.774;7.220;2023-09-19T09:40:21;16.90;88.60
23411;DHT22;11878;51.774;7.220;2023-09-19T09:43:39;17.00;89.60
23411;DHT22;11878;51.774;7.220;2023-09-19T09:46:48;17.30;87.50
23411;DHT22;11878;51.774;7.220;2023-09-19T09:49:56;17.50;87.30
23411;DHT22;11878;51.774;7.220;2023-09-19T09:53:29;17.50;87.30
23411;DHT22;11878;51.774;7.220;2023-09-19T09:56:34;17.60;85.70
23411;DHT22;11878;51.774;7.220;2023-09-19T09:59:48;17.70;85.20
23411;DHT22;11878;51.774;7.220;2023-09-19T10:02:55;17.90;83.70
23411;DHT22;11878;51.774;7.220;2023-09-19T10:05:57;17.70;83.60
23411;DHT22;11878;51.774;7.220;2023-09-19T10:09:01;17.60;84.40
23411;DHT22;11878;51.774;7.220;2023-09-19T10:12:15;18.20;81.00
23411;DHT22;11878;51.774;7.220;2023-09-19T10:15:18;18.70;78.20
23411;DHT22;11878;51.774;7.220;2023-09-19T10:18:27;18.90;77.20
23411;DHT22;11878;51.774;7.220;2023-09-19T10:21:31;19.20;75.30
23411;DHT22;11878;51.774;7.220;2023-09-19T10:24:34;19.40;74.90
23411;DHT22;11878;51.774;7.220;2023-09-19T10:27:46;19.50;72.90
23411;DHT22;11878;51.774;7.220;2023-09-19T10:30:49;19.50;72.30
23411;DHT22;11878;51.774;7.220;2023-09-19T10:33:53;18.80;74.60
23411;DHT22;11878;51.774;7.220;2023-09-19T10:36:57;18.70;73.70
23411;DHT22;11878;51.774;7.220;2023-09-19T10:39:59;18.70;75.40
23411;DHT22;11878;51.774;7.220;2023-09-19T10:43:05;19.00;75.70
23411;DHT22;11878;51.774;7.220;2023-09-19T10:46:08;19.00;74.80
23411;DHT22;11878;51.774;7.220;2023-09-19T10:49:12;18.90;75.60
23411;DHT22;11878;51.774;7.220;2023-09-19T10:52:18;18.80;74.00
23411;DHT22;11878;51.774;7.220;2023-09-19T10:55:23;19.10;73.00
23411;DHT22;11878;51.774;7.220;2023-09-19T10:58:27;19.00;75.00
23411;DHT22;11878;51.774;7.220;2023-09-19T11:05:11;19.00;72.70
23411;DHT22;11878;51.774;7.220;2023-09-19T11:08:13;18.60;72.30
23411;DHT22;11878;51.774;7.220;2023-09-19T11:11:44;18.70;73.10
23411;DHT22;11878;51.774;7.220;2023-09-19T11:14:48;18.90;74.90
23411;DHT22;11878;51.774;7.220;2023-09-19T11:17:49;18.80;72.40
23411;DHT22;11878;51.774;7.220;2023-09-19T11:24:35;18.80;72.50
23411;DHT22;11878;51.774;7.220;2023-09-19T11:31:43;18.70;72.50
23411;DHT22;11878;51.774;7.220;2023-09-19T11:34:46;18.60;72.50
23411;DHT22;11878;51.774;7.220;2023-09-19T11:47:28;18.70;70.10
23411;DHT22;11878;51.774;7.220;2023-09-19T11:50:31;18.90;71.60
23411;DHT22;11878;51.774;7.220;2023-09-19T11:53:35;18.70;70.90
23411;DHT22;11878;51.774;7.220;2023-09-19T11:56:40;18.70;71.10
23411;DHT22;11878;51.774;7.220;2023-09-19T11:59:43;19.00;71.40
23411;DHT22;11878;51.774;7.220;2023-09-19T12:02:47;19.10;72.30
23411;DHT22;11878;51.774;7.220;2023-09-19T12:05:50;19.10;71.70
23411;DHT22;11878;51.774;7.220;2023-09-19T12:08:54;19.00;71.40
23411;DHT22;11878;51.774;7.220;2023-09-19T12:11:56;19.00;70.70
23411;DHT22;11878;51.774;7.220;2023-09-19T12:14:59;18.90;71.80
23411;DHT22;11878;51.774;7.220;2023-09-19T12:18:01;18.90;70.90
23411;DHT22;11878;51.774;7.220;2023-09-19T12:21:06;19.20;71.80
23411;DHT22;11878;51.774;7.220;2023-09-19T12:24:12;19.40;69.50
23411;DHT22;11878;51.774;7.220;2023-09-19T12:27:20;19.40;68.10
23411;DHT22;11878;51.774;7.220;2023-09-19T12:30:28;19.60;68.50
23411;DHT22;11878;51.774;7.220;2023-09-19T12:33:30;19.60;68.90
23411;DHT22;11878;51.774;7.220;2023-09-19T12:36:34;19.60;70.10
23411;DHT22;11878;51.774;7.220;2023-09-19T12:39:42;19.60;70.00
23411;DHT22;11878;51.774;7.220;2023-09-19T12:42:45;19.50;68.50
23411;DHT22;11878;51.774;7.220;2023-09-19T12:45:48;19.60;68.10
23411;DHT22;11878;51.774;7.220;2023-09-19T12:49:19;19.50;67.50
23411;DHT22;11878;51.774;7.220;2023-09-19T12:52:21;19.50;67.90
23411;DHT22;11878;51.774;7.220;2023-09-19T12:55:28;19.40;67.00
23411;DHT22;11878;51.774;7.220;2023-09-19T12:58:30;19.30;67.70
23411;DHT22;11878;51.774;7.220;2023-09-19T13:01:32;19.30;67.10
23411;DHT22;11878;51.774;7.220;2023-09-19T13:04:38;19.30;67.80
23411;DHT22;11878;51.774;7.220;2023-09-19T13:07:44;19.40;66.20
23411;DHT22;11878;51.774;7.220;2023-09-19T13:11:12;19.60;64.80
23411;DHT22;11878;51.774;7.220;2023-09-19T13:14:28;19.60;66.30
23411;DHT22;11878;51.774;7.220;2023-09-19T13:17:48;20.00;64.70
23411;DHT22;11878;51.774;7.220;2023-09-19T13:21:07;19.90;63.60
23411;DHT22;11878;51.774;7.220;2023-09-19T13:24:24;20.00;64.00
23411;DHT22;11878;51.774;7.220;2023-09-19T13:27:29;19.90;64.40
23411;DHT22;11878;51.774;7.220;2023-09-19T13:30:31;20.00;64.80
23411;DHT22;11878;51.774;7.220;2023-09-19T13:33:43;20.30;63.50
23411;DHT22;11878;51.774;7.220;2023-09-19T13:36:45;20.50;61.00
23411;DHT22;11878;51.774;7.220;2023-09-19T13:39:49;20.90;60.50
23411;DHT22;11878;51.774;7.220;2023-09-19T13:42:51;20.80;61.00
23411;DHT22;11878;51.774;7.220;2023-09-19T13:45:55;20.50;60.80
23411;DHT22;11878;51.774;7.220;2023-09-19T13:48:59;20.00;63.00
23411;DHT22;11878;51.774;7.220;2023-09-19T13:52:04;20.10;63.50
23411;DHT22;11878;51.774;7.220;2023-09-19T13:55:06;20.00;63.50
23411;DHT22;11878;51.774;7.220;2023-09-19T13:58:09;19.80;64.60
23411;DHT22;11878;51.774;7.220;2023-09-19T14:01:12;19.70;63.60
23411;DHT22;11878;51.774;7.220;2023-09-19T14:04:14;19.50;64.00
23411;DHT22;11878;51.774;7.220;2023-09-19T14:07:18;19.50;64.40
23411;DHT22;11878;51.774;7.220;2023-09-19T14:10:22;19.50;64.30
23411;DHT22;11878;51.774;7.220;2023-09-19T14:13:23;19.50;65.70
23411;DHT22;11878;51.774;7.220;2023-09-19T14:16:27;19.50;65.90
23411;DHT22;11878;51.774;7.220;2023-09-19T14:22:56;19.40;65.20
23411;DHT22;11878;51.774;7.220;2023-09-19T14:26:01;19.30;65.80
23411;DHT22;11878;51.774;7.220;2023-09-19T14:29:03;21.00;67.00
23411;DHT22;11878;51.774;7.220;2023-09-19T14:32:05;19.30;66.10
23411;DHT22;11878;51.774;7.220;2023-09-19T14:35:08;19.30;67.30
23411;DHT22;11878;51.774;7.220;2023-09-19T14:38:11;19.30;67.20
23411;DHT22;11878;51.774;7.220;2023-09-19T14:41:13;19.20;67.20
23411;DHT22;11878;51.774;7.220;2023-09-19T14:44:15;19.20;67.90
23411;DHT22;11878;51.774;7.220;2023-09-19T14:47:18;19.20;67.30
23411;DHT22;11878;51.774;7.220;2023-09-19T14:50:20;19.20;68.30
23411;DHT22;11878;51.774;7.220;2023-09-19T14:53:24;19.10;68.40
23411;DHT22;11878;51.774;7.220;2023-09-19T14:56:27;19.10;68.10
23411;DHT22;11878;51.774;7.220;2023-09-19T14:59:33;19.10;68.10
23411;DHT22;11878;51.774;7.220;2023-09-19T15:02:39;19.10;68.40
23411;DHT22;11878;51.774;7.220;2023-09-19T15:05:42;19.10;68.80
23411;DHT22;11878;51.774;7.220;2023-09-19T15:08:46;19.10;68.60
23411;DHT22;11878;51.774;7.220;2023-09-19T15:11:50;19.10;67.70
23411;DHT22;11878;51.774;7.220;2023-09-19T15:14:52;19.20;68.10
23411;DHT22;11878;51.774;7.220;2023-09-19T15:17:54;19.20;67.70
23411;DHT22;11878;51.774;7.220;2023-09-19T15:21:00;19.20;67.80
23411;DHT22;11878;51.774;7.220;2023-09-19T15:24:02;19.20;68.40
23411;DHT22;11878;51.774;7.220;2023-09-19T15:27:04;19.30;67.70
23411;DHT22;11878;51.774;7.220;2023-09-19T15:30:06;19.30;68.10
23411;DHT22;11878;51.774;7.220;2023-09-19T15:33:09;19.20;68.70
23411;DHT22;11878;51.774;7.220;2023-09-19T15:36:13;19.10;69.80
23411;DHT22;11878;51.774;7.220;2023-09-19T15:39:15;19.20;69.60
23411;DHT22;11878;51.774;7.220;2023-09-19T15:42:18;19.10;68.50
23411;DHT22;11878;51.774;7.220;2023-09-19T15:45:20;19.10;68.10
23411;DHT22;11878;51.774;7.220;2023-09-19T15:48:22;19.10;68.70
23411;DHT22;11878;51.774;7.220;2023-09-19T15:51:24;19.20;68.00
23411;DHT22;11878;51.774;7.220;2023-09-19T15:54:26;19.10;68.70
23411;DHT22;11878;51.774;7.220;2023-09-19T15:57:29;19.00;69.00
23411;DHT22;11878;51.774;7.220;2023-09-19T16:00:32;18.90;68.70
23411;DHT22;11878;51.774;7.220;2023-09-19T16:03:39;18.90;68.30
23411;DHT22;11878;51.774;7.220;2023-09-19T16:06:41;18.90;68.80
23411;DHT22;11878;51.774;7.220;2023-09-19T16:09:43;18.90;68.00
23411;DHT22;11878;51.774;7.220;2023-09-19T16:12:45;19.00;68.10
23411;DHT22;11878;51.774;7.220;2023-09-19T16:15:47;18.90;69.00
23411;DHT22;11878;51.774;7.220;2023-09-19T16:19:09;18.90;69.70
23411;DHT22;11878;51.774;7.220;2023-09-19T16:22:12;18.90;69.70
23411;DHT22;11878;51.774;7.220;2023-09-19T16:25:15;18.80;69.70
23411;DHT22;11878;51.774;7.220;2023-09-19T16:28:17;18.80;69.00
23411;DHT22;11878;51.774;7.220;2023-09-19T16:31:20;18.80;69.00
23411;DHT22;11878;51.774;7.220;2023-09-19T16:34:22;18.80;69.20
23411;DHT22;11878;51.774;7.220;2023-09-19T16:37:24;18.90;68.30
23411;DHT22;11878;51.774;7.220;2023-09-19T16:40:26;18.90;68.30
23411;DHT22;11878;51.774;7.220;2023-09-19T16:43:29;18.90;68.90
23411;DHT22;11878;51.774;7.220;2023-09-19T16:46:31;18.90;69.00
23411;DHT22;11878;51.774;7.220;2023-09-19T16:49:33;18.80;68.90
23411;DHT22;11878;51.774;7.220;2023-09-19T16:52:35;18.80;69.20
23411;DHT22;11878;51.774;7.220;2023-09-19T16:55:38;18.90;69.40
23411;DHT22;11878;51.774;7.220;2023-09-19T16:58:45;18.70;69.10
23411;DHT22;11878;51.774;7.220;2023-09-19T17:01:47;18.70;69.60
23411;DHT22;11878;51.774;7.220;2023-09-19T17:04:49;18.80;69.30
23411;DHT22;11878;51.774;7.220;2023-09-19T17:07:53;18.70;70.20
23411;DHT22;11878;51.774;7.220;2023-09-19T17:11:07;18.70;70.60
23411;DHT22;11878;51.774;7.220;2023-09-19T17:14:14;18.70;69.90
23411;DHT22;11878;51.774;7.220;2023-09-19T17:17:16;18.70;70.20
23411;DHT22;11878;51.774;7.220;2023-09-19T17:20:19;18.60;70.40
23411;DHT22;11878;51.774;7.220;2023-09-19T17:23:21;18.60;70.90
23411;DHT22;11878;51.774;7.220;2023-09-19T17:26:23;18.60;71.80
23411;DHT22;11878;51.774;7.220;2023-09-19T17:29:26;18.50;71.00
23411;DHT22;11878;51.774;7.220;2023-09-19T17:32:29;18.60;70.90
23411;DHT22;11878;51.774;7.220;2023-09-19T17:35:31;18.50;70.90
23411;DHT22;11878;51.774;7.220;2023-09-19T17:38:33;18.60;71.30
23411;DHT22;11878;51.774;7.220;2023-09-19T17:41:35;18.50;71.50
23411;DHT22;11878;51.774;7.220;2023-09-19T17:44:37;18.50;71.50
23411;DHT22;11878;51.774;7.220;2023-09-19T17:47:41;18.50;71.40
23411;DHT22;11878;51.774;7.220;2023-09-19T17:50:43;18.50;71.60
23411;DHT22;11878;51.774;7.220;2023-09-19T17:53:46;18.60;71.40
23411;DHT22;11878;51.774;7.220;2023-09-19T17:56:49;18.60;71.00
23411;DHT22;11878;51.774;7.220;2023-09-19T17:59:51;18.60;71.50
23411;DHT22;11878;51.774;7.220;2023-09-19T18:02:52;18.60;71.40
23411;DHT22;11878;51.774;7.220;2023-09-19T18:05:56;18.50;71.60
23411;DHT22;11878;51.774;7.220;2023-09-19T18:08:58;18.50;71.10
23411;DHT22;11878;51.774;7.220;2023-09-19T18:12:00;18.60;71.10
23411;DHT22;11878;51.774;7.220;2023-09-19T18:15:02;18.60;70.80
23411;DHT22;11878;51.774;7.220;2023-09-19T18:18:05;18.60;70.50
23411;DHT22;11878;51.774;7.220;2023-09-19T18:21:11;18.60;70.00
23411;DHT22;11878;51.774;7.220;2023-09-19T18:24:14;18.60;69.80
23411;DHT22;11878;51.774;7.220;2023-09-19T18:27:16;18.60;70.20
23411;DHT22;11878;51.774;7.220;2023-09-19T18:30:18;18.60;70.80
23411;DHT22;11878;51.774;7.220;2023-09-19T18:33:20;18.60;70.50
23411;DHT22;11878;51.774;7.220;2023-09-19T18:36:22;18.60;70.50
23411;DHT22;11878;51.774;7.220;2023-09-19T18:39:24;18.50;70.80
23411;DHT22;11878;51.774;7.220;2023-09-19T18:42:27;18.50;70.90
23411;DHT22;11878;51.774;7.220;2023-09-19T18:45:31;18.50;71.50
23411;DHT22;11878;51.774;7.220;2023-09-19T18:48:43;18.50;71.00
23411;DHT22;11878;51.774;7.220;2023-09-19T18:51:49;18.50;71.00
23411;DHT22;11878;51.774;7.220;2023-09-19T18:54:50;18.40;71.60
23411;DHT22;11878;51.774;7.220;2023-09-19T18:57:52;18.40;71.60
23411;DHT22;11878;51.774;7.220;2023-09-19T19:01:01;18.50;71.50
23411;DHT22;11878;51.774;7.220;2023-09-19T19:04:04;18.50;71.10
23411;DHT22;11878;51.774;7.220;2023-09-19T19:07:07;18.50;71.50
23411;DHT22;11878;51.774;7.220;2023-09-19T19:10:13;18.40;71.40
23411;DHT22;11878;51.774;7.220;2023-09-19T19:13:15;18.40;71.70
23411;DHT22;11878;51.774;7.220;2023-09-19T19:16:17;18.40;72.00
23411;DHT22;11878;51.774;7.220;2023-09-19T19:19:22;18.40;72.10
23411;DHT22;11878;51.774;7.220;2023-09-19T19:22:24;18.40;71.90
23411;DHT22;11878;51.774;7.220;2023-09-19T19:25:26;18.30;72.90
23411;DHT22;11878;51.774;7.220;2023-09-19T19:28:29;18.40;72.20
23411;DHT22;11878;51.774;7.220;2023-09-19T19:31:31;18.30;72.10
23411;DHT22;11878;51.774;7.220;2023-09-19T19:34:35;18.30;71.90
23411;DHT22;11878;51.774;7.220;2023-09-19T19:37:39;18.40;71.80
23411;DHT22;11878;51.774;7.220;2023-09-19T19:40:41;18.30;72.10
23411;DHT22;11878;51.774;7.220;2023-09-19T19:43:43;18.30;72.50
23411;DHT22;11878;51.774;7.220;2023-09-19T19:46:45;18.30;72.40
23411;DHT22;11878;51.774;7.220;2023-09-19T19:49:47;18.30;72.30
23411;DHT22;11878;51.774;7.220;2023-09-19T19:52:52;18.20;72.50
23411;DHT22;11878;51.774;7.220;2023-09-19T19:56:01;18.20;72.60
23411;DHT22;11878;51.774;7.220;2023-09-19T19:59:06;18.20;72.60
23411;DHT22;11878;51.774;7.220;2023-09-19T20:02:08;18.20;72.50
23411;DHT22;11878;51.774;7.220;2023-09-19T20:05:10;18.20;72.90